Hauptseite
METAR-TAF:

METAR-TAF

Flughäfen :

Flughafen Venedig-Tessera

Venedig, Italien

Breite: 45-30N, Länge: 012-20E, Höhe: 2 m

Beobachtung

Neuester Wetterbericht von vor 39 Minuten, um 20:50 UTC
Wind 7 kt aus Nord/Nordost
Temperatur 5°C
Luftfeuchtigkeit 70%
Luftdruck 1015 hPa
Sichtweite 10 km oder mehr
keine Wolken unter 1500 m und keine Kumulonimbus oder Gewitterwolken

METAR: LIPZ 182050Z 02007KT CAVOK 05/M00 Q1015 NOSIG

Zeit: 22:29 (21:29 UTC)

Prognose

Neuester Wetterbericht von vor 1 Stunde und 27 Minuten, um 20:02 UTC
Gültige Prognose vom 18 um 18 UTC bis 19 um 24 UTC
Wind 13 kt aus Ost
Sichtweite 10 km oder mehr
keine Wolken unter 1500 m und keine Kumulonimbus oder Gewitterwolken
Übergehend zu
vom 19 um 16 UTC bis 19 um 18 UTC
Wind 20 kt aus Ost, Böen bis zu 30 kt

TAF: LIPZ 182002Z 1818/1924 08013KT CAVOK BECMG 1916/1918 08020G30KT

Wetterbeobachtungen und Prognosen von mehr als 4000 Flughäfen (METAR und TAF Bericht).

Die verfügbaren Stationen werden durch gelbe und rote Markierungen auf der Karte dargestellt.

Führen Sie die Maus auf sie, um den Namen der Station zu sehen.

Darauf klicken, um die Beobachtung von Wetterbeobachtungen und Prognosen zu sehen.

Um die Karte zu ändern : klicken Sie auf den grünen Tasten mit einem schwarzen Kreuz Zum Vergrößern, auf den grünen Button mit einem Gedankenstrich zu verkleinern, oder auf die grünen Pfeile für benachbarte Karten.


METAR-TAF: